sensor_id;sensor_type;location;lat;lon;timestamp;temperature;humidity
25628;DHT22;40915;50.826;4.356;2022-12-18T00:03:44;-1.30;99.90
25628;DHT22;40915;50.826;4.356;2022-12-18T00:06:10;-1.40;99.90
25628;DHT22;40915;50.826;4.356;2022-12-18T00:08:37;-1.40;99.90
25628;DHT22;40915;50.826;4.356;2022-12-18T00:11:07;-1.40;99.90
25628;DHT22;40915;50.826;4.356;2022-12-18T00:13:33;-1.40;99.90
25628;DHT22;40915;50.826;4.356;2022-12-18T00:16:06;-1.50;99.90
25628;DHT22;40915;50.826;4.356;2022-12-18T00:18:32;-1.50;99.90
25628;DHT22;40915;50.826;4.356;2022-12-18T00:21:00;-1.40;99.90
25628;DHT22;40915;50.826;4.356;2022-12-18T00:23:26;-1.50;99.90
25628;DHT22;40915;50.826;4.356;2022-12-18T00:25:52;-1.50;99.90
25628;DHT22;40915;50.826;4.356;2022-12-18T00:28:18;-1.50;99.90
25628;DHT22;40915;50.826;4.356;2022-12-18T00:30:43;-1.50;99.90
25628;DHT22;40915;50.826;4.356;2022-12-18T00:33:09;-1.50;99.90
25628;DHT22;40915;50.826;4.356;2022-12-18T00:35:35;-1.50;99.90
25628;DHT22;40915;50.826;4.356;2022-12-18T00:38:00;-1.50;99.90
25628;DHT22;40915;50.826;4.356;2022-12-18T00:40:26;-1.50;99.90
25628;DHT22;40915;50.826;4.356;2022-12-18T00:42:51;-1.50;99.90
25628;DHT22;40915;50.826;4.356;2022-12-18T00:45:28;-1.50;99.90
25628;DHT22;40915;50.826;4.356;2022-12-18T00:47:54;-1.50;99.90
25628;DHT22;40915;50.826;4.356;2022-12-18T00:50:21;-1.60;99.90
25628;DHT22;40915;50.826;4.356;2022-12-18T00:52:47;-1.60;99.90
25628;DHT22;40915;50.826;4.356;2022-12-18T00:55:13;-1.70;99.90
25628;DHT22;40915;50.826;4.356;2022-12-18T00:57:39;-1.70;99.90
25628;DHT22;40915;50.826;4.356;2022-12-18T01:00:06;-1.70;99.90
25628;DHT22;40915;50.826;4.356;2022-12-18T01:02:32;-1.70;99.90
25628;DHT22;40915;50.826;4.356;2022-12-18T01:04:58;-1.70;99.90
25628;DHT22;40915;50.826;4.356;2022-12-18T01:07:23;-1.70;99.90
25628;DHT22;40915;50.826;4.356;2022-12-18T01:09:49;-1.70;99.90
25628;DHT22;40915;50.826;4.356;2022-12-18T01:12:15;-1.70;99.90
25628;DHT22;40915;50.826;4.356;2022-12-18T01:14:40;-1.60;99.90
25628;DHT22;40915;50.826;4.356;2022-12-18T01:17:06;-1.60;99.90
25628;DHT22;40915;50.826;4.356;2022-12-18T01:19:32;-1.60;99.90
25628;DHT22;40915;50.826;4.356;2022-12-18T01:21:58;-1.60;99.90
25628;DHT22;40915;50.826;4.356;2022-12-18T01:24:24;-1.50;99.90
25628;DHT22;40915;50.826;4.356;2022-12-18T01:26:50;-1.50;99.90
25628;DHT22;40915;50.826;4.356;2022-12-18T01:29:15;-1.50;99.90
25628;DHT22;40915;50.826;4.356;2022-12-18T01:31:41;-1.50;99.90
25628;DHT22;40915;50.826;4.356;2022-12-18T01:34:06;-1.50;99.90
25628;DHT22;40915;50.826;4.356;2022-12-18T01:36:35;-1.50;99.90
25628;DHT22;40915;50.826;4.356;2022-12-18T01:39:04;-1.50;99.90
25628;DHT22;40915;50.826;4.356;2022-12-18T01:41:31;-1.50;99.90
25628;DHT22;40915;50.826;4.356;2022-12-18T01:52:36;-1.50;99.90
25628;DHT22;40915;50.826;4.356;2022-12-18T01:55:04;-1.50;99.90
25628;DHT22;40915;50.826;4.356;2022-12-18T01:57:30;-1.60;99.90
25628;DHT22;40915;50.826;4.356;2022-12-18T02:00:00;-1.60;99.90
25628;DHT22;40915;50.826;4.356;2022-12-18T02:02:28;-1.60;99.90
25628;DHT22;40915;50.826;4.356;2022-12-18T02:04:54;-1.60;99.90
25628;DHT22;40915;50.826;4.356;2022-12-18T02:07:25;-1.70;99.90
25628;DHT22;40915;50.826;4.356;2022-12-18T02:18:22;-1.70;99.90
25628;DHT22;40915;50.826;4.356;2022-12-18T02:20:55;-1.70;99.90
25628;DHT22;40915;50.826;4.356;2022-12-18T02:23:35;-1.70;99.90
25628;DHT22;40915;50.826;4.356;2022-12-18T02:26:18;-1.70;99.90
25628;DHT22;40915;50.826;4.356;2022-12-18T02:29:02;-1.70;99.90
25628;DHT22;40915;50.826;4.356;2022-12-18T02:31:32;-1.80;99.90
25628;DHT22;40915;50.826;4.356;2022-12-18T02:34:03;-1.80;99.90
25628;DHT22;40915;50.826;4.356;2022-12-18T02:36:31;-1.80;99.90
25628;DHT22;40915;50.826;4.356;2022-12-18T02:38:58;-1.80;99.90
25628;DHT22;40915;50.826;4.356;2022-12-18T02:41:25;-1.70;99.90
25628;DHT22;40915;50.826;4.356;2022-12-18T02:44:00;-1.80;99.90
25628;DHT22;40915;50.826;4.356;2022-12-18T02:46:34;-1.80;99.90
25628;DHT22;40915;50.826;4.356;2022-12-18T02:51:47;-1.90;99.90
25628;DHT22;40915;50.826;4.356;2022-12-18T02:56:54;-2.00;99.90
25628;DHT22;40915;50.826;4.356;2022-12-18T02:59:31;-2.00;99.90
25628;DHT22;40915;50.826;4.356;2022-12-18T03:04:39;-2.00;99.90
25628;DHT22;40915;50.826;4.356;2022-12-18T03:07:16;-1.90;99.90
25628;DHT22;40915;50.826;4.356;2022-12-18T03:09:46;-2.00;99.90
25628;DHT22;40915;50.826;4.356;2022-12-18T03:12:32;-2.00;99.90
25628;DHT22;40915;50.826;4.356;2022-12-18T03:17:30;-2.10;99.90
25628;DHT22;40915;50.826;4.356;2022-12-18T03:19:58;-2.10;99.90
25628;DHT22;40915;50.826;4.356;2022-12-18T03:22:27;-2.10;99.90
25628;DHT22;40915;50.826;4.356;2022-12-18T03:24:56;-2.20;99.90
25628;DHT22;40915;50.826;4.356;2022-12-18T03:27:24;-2.20;99.90
25628;DHT22;40915;50.826;4.356;2022-12-18T03:30:08;-2.30;99.90
25628;DHT22;40915;50.826;4.356;2022-12-18T03:32:47;-2.30;99.90
25628;DHT22;40915;50.826;4.356;2022-12-18T03:35:20;-2.40;99.90
25628;DHT22;40915;50.826;4.356;2022-12-18T03:37:47;-2.40;99.90
25628;DHT22;40915;50.826;4.356;2022-12-18T03:40:12;-2.40;99.90
25628;DHT22;40915;50.826;4.356;2022-12-18T03:42:56;-2.40;99.90
25628;DHT22;40915;50.826;4.356;2022-12-18T03:45:31;-2.40;99.90
25628;DHT22;40915;50.826;4.356;2022-12-18T03:55:54;-2.50;99.90
25628;DHT22;40915;50.826;4.356;2022-12-18T03:58:23;-2.50;99.90
25628;DHT22;40915;50.826;4.356;2022-12-18T04:00:52;-2.50;99.90
25628;DHT22;40915;50.826;4.356;2022-12-18T04:03:19;-2.50;99.90
25628;DHT22;40915;50.826;4.356;2022-12-18T04:05:48;-2.50;99.90
25628;DHT22;40915;50.826;4.356;2022-12-18T04:08:15;-2.50;99.90
25628;DHT22;40915;50.826;4.356;2022-12-18T04:10:41;-2.50;99.90
25628;DHT22;40915;50.826;4.356;2022-12-18T04:13:07;-2.60;99.90
25628;DHT22;40915;50.826;4.356;2022-12-18T04:15:34;-2.60;99.90
25628;DHT22;40915;50.826;4.356;2022-12-18T04:18:01;-2.60;99.90
25628;DHT22;40915;50.826;4.356;2022-12-18T04:20:27;-2.60;99.90
25628;DHT22;40915;50.826;4.356;2022-12-18T04:22:52;-2.60;99.90
25628;DHT22;40915;50.826;4.356;2022-12-18T04:25:18;-2.60;99.90
25628;DHT22;40915;50.826;4.356;2022-12-18T04:27:43;-2.70;99.90
25628;DHT22;40915;50.826;4.356;2022-12-18T04:30:10;-2.70;99.90
25628;DHT22;40915;50.826;4.356;2022-12-18T04:32:35;-2.70;99.90
25628;DHT22;40915;50.826;4.356;2022-12-18T04:35:02;-2.70;99.90
25628;DHT22;40915;50.826;4.356;2022-12-18T04:37:29;-2.70;99.90
25628;DHT22;40915;50.826;4.356;2022-12-18T04:39:55;-2.70;99.90
25628;DHT22;40915;50.826;4.356;2022-12-18T04:42:20;-2.70;99.90
25628;DHT22;40915;50.826;4.356;2022-12-18T04:44:46;-2.70;99.90
25628;DHT22;40915;50.826;4.356;2022-12-18T04:47:12;-2.60;99.90
25628;DHT22;40915;50.826;4.356;2022-12-18T04:49:37;-2.70;99.90
25628;DHT22;40915;50.826;4.356;2022-12-18T04:52:03;-2.60;99.90
25628;DHT22;40915;50.826;4.356;2022-12-18T04:54:28;-2.60;99.90
25628;DHT22;40915;50.826;4.356;2022-12-18T04:56:54;-2.60;99.90
25628;DHT22;40915;50.826;4.356;2022-12-18T04:59:19;-2.60;99.90
25628;DHT22;40915;50.826;4.356;2022-12-18T05:01:45;-2.60;99.90
25628;DHT22;40915;50.826;4.356;2022-12-18T05:04:11;-2.60;99.90
25628;DHT22;40915;50.826;4.356;2022-12-18T05:06:36;-2.60;99.90
25628;DHT22;40915;50.826;4.356;2022-12-18T05:09:02;-2.60;99.90
25628;DHT22;40915;50.826;4.356;2022-12-18T05:11:28;-2.60;99.90
25628;DHT22;40915;50.826;4.356;2022-12-18T05:13:54;-2.60;99.90
25628;DHT22;40915;50.826;4.356;2022-12-18T05:16:19;-2.60;99.90
25628;DHT22;40915;50.826;4.356;2022-12-18T05:18:45;-2.70;99.90
25628;DHT22;40915;50.826;4.356;2022-12-18T05:21:10;-2.70;99.90
25628;DHT22;40915;50.826;4.356;2022-12-18T05:23:36;-2.70;99.90
25628;DHT22;40915;50.826;4.356;2022-12-18T05:26:04;-2.70;99.90
25628;DHT22;40915;50.826;4.356;2022-12-18T05:28:31;-2.70;99.90
25628;DHT22;40915;50.826;4.356;2022-12-18T05:30:59;-2.70;99.90
25628;DHT22;40915;50.826;4.356;2022-12-18T05:33:26;-2.70;99.90
25628;DHT22;40915;50.826;4.356;2022-12-18T05:35:55;-2.70;99.90
25628;DHT22;40915;50.826;4.356;2022-12-18T05:38:22;-2.70;99.90
25628;DHT22;40915;50.826;4.356;2022-12-18T05:40:51;-2.70;99.90
25628;DHT22;40915;50.826;4.356;2022-12-18T05:43:18;-2.70;99.90
25628;DHT22;40915;50.826;4.356;2022-12-18T05:45:44;-2.70;99.90
25628;DHT22;40915;50.826;4.356;2022-12-18T05:48:10;-2.70;99.90
25628;DHT22;40915;50.826;4.356;2022-12-18T05:50:37;-2.70;99.90
25628;DHT22;40915;50.826;4.356;2022-12-18T05:53:05;-2.70;99.90
25628;DHT22;40915;50.826;4.356;2022-12-18T05:55:38;-2.70;99.90
25628;DHT22;40915;50.826;4.356;2022-12-18T05:58:06;-2.70;99.90
25628;DHT22;40915;50.826;4.356;2022-12-18T06:00:36;-2.80;99.90
25628;DHT22;40915;50.826;4.356;2022-12-18T06:03:06;-2.80;99.90
25628;DHT22;40915;50.826;4.356;2022-12-18T06:05:40;-2.80;99.90
25628;DHT22;40915;50.826;4.356;2022-12-18T06:08:06;-2.80;99.90
25628;DHT22;40915;50.826;4.356;2022-12-18T06:10:32;-2.70;99.90
25628;DHT22;40915;50.826;4.356;2022-12-18T06:12:57;-2.70;99.90
25628;DHT22;40915;50.826;4.356;2022-12-18T06:15:23;-2.70;99.90
25628;DHT22;40915;50.826;4.356;2022-12-18T06:17:49;-2.70;99.90
25628;DHT22;40915;50.826;4.356;2022-12-18T06:20:15;-2.70;99.90
25628;DHT22;40915;50.826;4.356;2022-12-18T06:22:41;-2.60;99.90
25628;DHT22;40915;50.826;4.356;2022-12-18T06:25:07;-2.60;99.90
25628;DHT22;40915;50.826;4.356;2022-12-18T06:27:32;-2.50;99.90
25628;DHT22;40915;50.826;4.356;2022-12-18T06:29:59;-2.50;99.90
25628;DHT22;40915;50.826;4.356;2022-12-18T06:32:25;-2.50;99.90
25628;DHT22;40915;50.826;4.356;2022-12-18T06:34:50;-2.40;99.90
25628;DHT22;40915;50.826;4.356;2022-12-18T06:37:16;-2.50;99.90
25628;DHT22;40915;50.826;4.356;2022-12-18T06:39:42;-2.50;99.90
25628;DHT22;40915;50.826;4.356;2022-12-18T06:42:11;-2.50;99.90
25628;DHT22;40915;50.826;4.356;2022-12-18T06:44:36;-2.50;99.90
25628;DHT22;40915;50.826;4.356;2022-12-18T06:47:02;-2.50;99.90
25628;DHT22;40915;50.826;4.356;2022-12-18T06:49:28;-2.50;99.90
25628;DHT22;40915;50.826;4.356;2022-12-18T06:51:53;-2.50;99.90
25628;DHT22;40915;50.826;4.356;2022-12-18T06:54:19;-2.50;99.90
25628;DHT22;40915;50.826;4.356;2022-12-18T06:56:45;-2.50;99.90
25628;DHT22;40915;50.826;4.356;2022-12-18T06:59:12;-2.50;99.90
25628;DHT22;40915;50.826;4.356;2022-12-18T07:01:38;-2.50;99.90
25628;DHT22;40915;50.826;4.356;2022-12-18T07:04:04;-2.50;99.90
25628;DHT22;40915;50.826;4.356;2022-12-18T07:06:29;-2.50;99.90
25628;DHT22;40915;50.826;4.356;2022-12-18T07:08:55;-2.60;99.90
25628;DHT22;40915;50.826;4.356;2022-12-18T07:11:21;-2.50;99.90
25628;DHT22;40915;50.826;4.356;2022-12-18T07:13:47;-2.50;99.90
25628;DHT22;40915;50.826;4.356;2022-12-18T07:16:18;-2.50;99.90
25628;DHT22;40915;50.826;4.356;2022-12-18T07:18:44;-2.60;99.90
25628;DHT22;40915;50.826;4.356;2022-12-18T07:21:18;-2.60;99.90
25628;DHT22;40915;50.826;4.356;2022-12-18T07:23:44;-2.60;99.90
25628;DHT22;40915;50.826;4.356;2022-12-18T07:26:14;-2.60;99.90
25628;DHT22;40915;50.826;4.356;2022-12-18T07:28:41;-2.60;99.90
25628;DHT22;40915;50.826;4.356;2022-12-18T07:31:13;-2.50;99.90
25628;DHT22;40915;50.826;4.356;2022-12-18T07:33:39;-2.60;99.90
25628;DHT22;40915;50.826;4.356;2022-12-18T07:36:06;-2.60;99.90
25628;DHT22;40915;50.826;4.356;2022-12-18T07:38:33;-2.60;99.90
25628;DHT22;40915;50.826;4.356;2022-12-18T07:41:03;-2.60;99.90
25628;DHT22;40915;50.826;4.356;2022-12-18T07:43:29;-2.50;99.90
25628;DHT22;40915;50.826;4.356;2022-12-18T07:45:55;-2.60;99.90
25628;DHT22;40915;50.826;4.356;2022-12-18T07:48:21;-2.60;99.90
25628;DHT22;40915;50.826;4.356;2022-12-18T07:50:47;-2.60;99.90
25628;DHT22;40915;50.826;4.356;2022-12-18T07:53:13;-2.50;99.90
25628;DHT22;40915;50.826;4.356;2022-12-18T07:55:40;-2.50;99.90
25628;DHT22;40915;50.826;4.356;2022-12-18T07:58:07;-2.60;99.90
25628;DHT22;40915;50.826;4.356;2022-12-18T08:00:33;-2.60;99.90
25628;DHT22;40915;50.826;4.356;2022-12-18T08:02:59;-2.60;99.90
25628;DHT22;40915;50.826;4.356;2022-12-18T08:05:24;-2.60;99.90
25628;DHT22;40915;50.826;4.356;2022-12-18T08:07:50;-2.60;99.90
25628;DHT22;40915;50.826;4.356;2022-12-18T08:10:16;-2.60;99.90
25628;DHT22;40915;50.826;4.356;2022-12-18T08:12:41;-2.50;99.90
25628;DHT22;40915;50.826;4.356;2022-12-18T08:15:07;-2.50;99.90
25628;DHT22;40915;50.826;4.356;2022-12-18T08:17:33;-2.40;99.90
25628;DHT22;40915;50.826;4.356;2022-12-18T08:19:59;-2.40;99.90
25628;DHT22;40915;50.826;4.356;2022-12-18T08:22:24;-2.30;99.90
25628;DHT22;40915;50.826;4.356;2022-12-18T08:24:50;-2.30;99.90
25628;DHT22;40915;50.826;4.356;2022-12-18T08:27:16;-2.20;99.90
25628;DHT22;40915;50.826;4.356;2022-12-18T08:29:41;-2.20;99.90
25628;DHT22;40915;50.826;4.356;2022-12-18T08:32:07;-2.20;99.90
25628;DHT22;40915;50.826;4.356;2022-12-18T08:34:32;-2.10;99.90
25628;DHT22;40915;50.826;4.356;2022-12-18T08:36:58;-2.00;99.90
25628;DHT22;40915;50.826;4.356;2022-12-18T08:39:23;-2.00;99.90
25628;DHT22;40915;50.826;4.356;2022-12-18T08:41:49;-1.90;99.90
25628;DHT22;40915;50.826;4.356;2022-12-18T08:44:33;-1.90;99.90
25628;DHT22;40915;50.826;4.356;2022-12-18T08:47:09;-1.80;99.90
25628;DHT22;40915;50.826;4.356;2022-12-18T08:49:35;-1.80;99.90
25628;DHT22;40915;50.826;4.356;2022-12-18T08:52:00;-1.60;99.90
25628;DHT22;40915;50.826;4.356;2022-12-18T08:54:28;-1.60;99.90
25628;DHT22;40915;50.826;4.356;2022-12-18T08:56:53;-1.60;99.90
25628;DHT22;40915;50.826;4.356;2022-12-18T08:59:19;-1.50;99.90
25628;DHT22;40915;50.826;4.356;2022-12-18T09:01:46;-1.50;99.90
25628;DHT22;40915;50.826;4.356;2022-12-18T09:04:12;-1.30;99.90
25628;DHT22;40915;50.826;4.356;2022-12-18T09:06:39;-1.30;99.90
25628;DHT22;40915;50.826;4.356;2022-12-18T09:09:05;-1.20;99.90
25628;DHT22;40915;50.826;4.356;2022-12-18T09:11:31;-1.10;99.90
25628;DHT22;40915;50.826;4.356;2022-12-18T09:13:58;-1.10;99.90
25628;DHT22;40915;50.826;4.356;2022-12-18T09:16:25;-1.10;99.90
25628;DHT22;40915;50.826;4.356;2022-12-18T09:18:51;-1.10;99.90
25628;DHT22;40915;50.826;4.356;2022-12-18T09:21:20;-1.10;99.90
25628;DHT22;40915;50.826;4.356;2022-12-18T09:23:53;-1.00;99.90
25628;DHT22;40915;50.826;4.356;2022-12-18T09:26:23;-1.00;99.90
25628;DHT22;40915;50.826;4.356;2022-12-18T09:28:50;-1.00;99.90
25628;DHT22;40915;50.826;4.356;2022-12-18T09:31:18;-1.00;99.90
25628;DHT22;40915;50.826;4.356;2022-12-18T09:33:44;-0.90;99.90
25628;DHT22;40915;50.826;4.356;2022-12-18T09:36:12;-0.80;99.90
25628;DHT22;40915;50.826;4.356;2022-12-18T09:38:38;-0.80;99.90
25628;DHT22;40915;50.826;4.356;2022-12-18T09:41:27;-0.80;99.90
25628;DHT22;40915;50.826;4.356;2022-12-18T09:44:01;-0.70;99.90
25628;DHT22;40915;50.826;4.356;2022-12-18T09:46:34;-0.70;99.90
25628;DHT22;40915;50.826;4.356;2022-12-18T09:49:09;-0.70;99.90
25628;DHT22;40915;50.826;4.356;2022-12-18T09:51:54;-0.60;99.90
25628;DHT22;40915;50.826;4.356;2022-12-18T09:54:37;-0.60;99.90
25628;DHT22;40915;50.826;4.356;2022-12-18T09:57:04;-0.60;99.90
25628;DHT22;40915;50.826;4.356;2022-12-18T09:59:34;-0.50;99.90
25628;DHT22;40915;50.826;4.356;2022-12-18T10:02:13;-0.50;99.90
25628;DHT22;40915;50.826;4.356;2022-12-18T10:04:39;-0.40;99.90
25628;DHT22;40915;50.826;4.356;2022-12-18T10:07:27;-0.40;99.90
25628;DHT22;40915;50.826;4.356;2022-12-18T10:09:59;-0.30;99.90
25628;DHT22;40915;50.826;4.356;2022-12-18T10:12:43;-0.30;99.90
25628;DHT22;40915;50.826;4.356;2022-12-18T10:15:23;-0.30;99.90
25628;DHT22;40915;50.826;4.356;2022-12-18T10:20:45;-0.10;99.90
25628;DHT22;40915;50.826;4.356;2022-12-18T10:28:21;0.00;99.90
25628;DHT22;40915;50.826;4.356;2022-12-18T10:30:48;0.00;99.90
25628;DHT22;40915;50.826;4.356;2022-12-18T10:33:23;0.10;99.90
25628;DHT22;40915;50.826;4.356;2022-12-18T10:35:53;0.10;99.90
25628;DHT22;40915;50.826;4.356;2022-12-18T10:46:17;0.30;99.90
25628;DHT22;40915;50.826;4.356;2022-12-18T10:48:51;0.40;99.90
25628;DHT22;40915;50.826;4.356;2022-12-18T10:51:27;0.40;99.90
25628;DHT22;40915;50.826;4.356;2022-12-18T10:56:22;0.50;99.90
25628;DHT22;40915;50.826;4.356;2022-12-18T10:59:03;0.50;99.90
25628;DHT22;40915;50.826;4.356;2022-12-18T11:01:50;0.60;99.90
25628;DHT22;40915;50.826;4.356;2022-12-18T11:04:20;0.70;99.90
25628;DHT22;40915;50.826;4.356;2022-12-18T11:07:07;0.60;99.90
25628;DHT22;40915;50.826;4.356;2022-12-18T11:09:36;0.60;99.90
25628;DHT22;40915;50.826;4.356;2022-12-18T11:12:16;0.60;99.90
25628;DHT22;40915;50.826;4.356;2022-12-18T11:14:52;0.60;99.90
25628;DHT22;40915;50.826;4.356;2022-12-18T11:17:35;0.60;99.90
25628;DHT22;40915;50.826;4.356;2022-12-18T11:20:06;0.70;99.90
25628;DHT22;40915;50.826;4.356;2022-12-18T11:22:35;0.70;99.90
25628;DHT22;40915;50.826;4.356;2022-12-18T11:25:18;0.80;99.90
25628;DHT22;40915;50.826;4.356;2022-12-18T11:28:03;0.80;99.90
25628;DHT22;40915;50.826;4.356;2022-12-18T11:30:34;0.80;99.90
25628;DHT22;40915;50.826;4.356;2022-12-18T11:35:58;0.80;99.90
25628;DHT22;40915;50.826;4.356;2022-12-18T11:38:35;0.80;99.90
25628;DHT22;40915;50.826;4.356;2022-12-18T11:41:07;0.90;99.90
25628;DHT22;40915;50.826;4.356;2022-12-18T11:46:18;0.90;99.90
25628;DHT22;40915;50.826;4.356;2022-12-18T11:51:23;0.90;99.90
25628;DHT22;40915;50.826;4.356;2022-12-18T11:53:51;1.00;99.90
25628;DHT22;40915;50.826;4.356;2022-12-18T11:56:31;1.00;99.90
25628;DHT22;40915;50.826;4.356;2022-12-18T12:01:55;1.00;99.90
25628;DHT22;40915;50.826;4.356;2022-12-18T12:04:34;1.00;99.90
25628;DHT22;40915;50.826;4.356;2022-12-18T12:10:33;1.10;99.90
25628;DHT22;40915;50.826;4.356;2022-12-18T12:18:33;1.10;99.90
25628;DHT22;40915;50.826;4.356;2022-12-18T12:21:07;1.10;99.90
25628;DHT22;40915;50.826;4.356;2022-12-18T12:24:00;1.10;99.90
25628;DHT22;40915;50.826;4.356;2022-12-18T12:26:49;1.10;99.90
25628;DHT22;40915;50.826;4.356;2022-12-18T12:39:56;1.30;99.90
25628;DHT22;40915;50.826;4.356;2022-12-18T12:42:47;1.30;99.90
25628;DHT22;40915;50.826;4.356;2022-12-18T12:48:06;1.20;99.90
25628;DHT22;40915;50.826;4.356;2022-12-18T12:58:26;1.30;99.90
25628;DHT22;40915;50.826;4.356;2022-12-18T13:03:45;1.40;99.90
25628;DHT22;40915;50.826;4.356;2022-12-18T13:09:03;1.40;99.90
25628;DHT22;40915;50.826;4.356;2022-12-18T13:11:39;1.40;99.90
25628;DHT22;40915;50.826;4.356;2022-12-18T13:14:30;1.40;99.90
25628;DHT22;40915;50.826;4.356;2022-12-18T13:20:10;1.30;99.90
25628;DHT22;40915;50.826;4.356;2022-12-18T13:22:47;1.40;99.90
25628;DHT22;40915;50.826;4.356;2022-12-18T13:28:14;1.30;99.90
25628;DHT22;40915;50.826;4.356;2022-12-18T13:30:51;1.30;99.90
25628;DHT22;40915;50.826;4.356;2022-12-18T13:36:04;1.20;99.90
25628;DHT22;40915;50.826;4.356;2022-12-18T13:38:35;1.20;99.90
25628;DHT22;40915;50.826;4.356;2022-12-18T13:43:39;1.20;99.90
25628;DHT22;40915;50.826;4.356;2022-12-18T13:46:18;1.20;99.90
25628;DHT22;40915;50.826;4.356;2022-12-18T13:49:05;1.30;99.90
25628;DHT22;40915;50.826;4.356;2022-12-18T13:51:47;1.30;99.90
25628;DHT22;40915;50.826;4.356;2022-12-18T13:54:35;1.20;99.90
25628;DHT22;40915;50.826;4.356;2022-12-18T13:57:00;1.20;99.90
25628;DHT22;40915;50.826;4.356;2022-12-18T13:59:33;1.20;99.90
25628;DHT22;40915;50.826;4.356;2022-12-18T14:02:05;1.20;99.90
25628;DHT22;40915;50.826;4.356;2022-12-18T14:04:35;1.20;99.90
25628;DHT22;40915;50.826;4.356;2022-12-18T14:07:12;1.20;99.90
25628;DHT22;40915;50.826;4.356;2022-12-18T14:09:59;1.10;99.90
25628;DHT22;40915;50.826;4.356;2022-12-18T14:12:28;1.20;99.90
25628;DHT22;40915;50.826;4.356;2022-12-18T14:20:20;1.20;99.90
25628;DHT22;40915;50.826;4.356;2022-12-18T14:22:47;1.20;99.90
25628;DHT22;40915;50.826;4.356;2022-12-18T14:25:20;1.20;99.90
25628;DHT22;40915;50.826;4.356;2022-12-18T14:30:36;1.20;99.90
25628;DHT22;40915;50.826;4.356;2022-12-18T14:35:34;1.30;99.90
25628;DHT22;40915;50.826;4.356;2022-12-18T14:40:41;1.20;99.90
25628;DHT22;40915;50.826;4.356;2022-12-18T14:43:10;1.20;99.90
25628;DHT22;40915;50.826;4.356;2022-12-18T14:45:42;1.20;99.90
25628;DHT22;40915;50.826;4.356;2022-12-18T14:48:21;1.20;99.90
25628;DHT22;40915;50.826;4.356;2022-12-18T14:51:02;1.20;99.90
25628;DHT22;40915;50.826;4.356;2022-12-18T14:53:40;1.20;99.90
25628;DHT22;40915;50.826;4.356;2022-12-18T14:56:22;1.20;99.90
25628;DHT22;40915;50.826;4.356;2022-12-18T14:59:00;1.20;99.90
25628;DHT22;40915;50.826;4.356;2022-12-18T15:01:34;1.20;99.90
25628;DHT22;40915;50.826;4.356;2022-12-18T15:04:03;1.20;99.90
25628;DHT22;40915;50.826;4.356;2022-12-18T15:06:34;1.20;99.90
25628;DHT22;40915;50.826;4.356;2022-12-18T15:09:03;1.10;99.90
25628;DHT22;40915;50.826;4.356;2022-12-18T15:14:03;1.20;99.90
25628;DHT22;40915;50.826;4.356;2022-12-18T15:16:50;1.20;99.90
25628;DHT22;40915;50.826;4.356;2022-12-18T15:19:16;1.20;99.90
25628;DHT22;40915;50.826;4.356;2022-12-18T15:21:43;1.10;99.90
25628;DHT22;40915;50.826;4.356;2022-12-18T15:24:27;1.20;99.90
25628;DHT22;40915;50.826;4.356;2022-12-18T15:26:54;1.20;99.90
25628;DHT22;40915;50.826;4.356;2022-12-18T15:29:21;1.20;99.90
25628;DHT22;40915;50.826;4.356;2022-12-18T15:32:17;1.20;99.90
25628;DHT22;40915;50.826;4.356;2022-12-18T15:34:44;1.20;99.90
25628;DHT22;40915;50.826;4.356;2022-12-18T15:37:09;1.20;99.90
25628;DHT22;40915;50.826;4.356;2022-12-18T15:39:35;1.20;99.90
25628;DHT22;40915;50.826;4.356;2022-12-18T15:42:01;1.20;99.90
25628;DHT22;40915;50.826;4.356;2022-12-18T15:44:45;1.20;99.90
25628;DHT22;40915;50.826;4.356;2022-12-18T15:47:12;1.20;99.90
25628;DHT22;40915;50.826;4.356;2022-12-18T15:49:39;1.10;99.90
25628;DHT22;40915;50.826;4.356;2022-12-18T15:52:05;1.10;99.90
25628;DHT22;40915;50.826;4.356;2022-12-18T15:54:31;1.20;99.90
25628;DHT22;40915;50.826;4.356;2022-12-18T15:57:16;1.20;99.90
25628;DHT22;40915;50.826;4.356;2022-12-18T15:59:53;1.20;99.90
25628;DHT22;40915;50.826;4.356;2022-12-18T16:02:20;1.10;99.90
25628;DHT22;40915;50.826;4.356;2022-12-18T16:04:48;1.20;99.90
25628;DHT22;40915;50.826;4.356;2022-12-18T16:07:13;1.20;99.90
25628;DHT22;40915;50.826;4.356;2022-12-18T16:09:40;1.20;99.90
25628;DHT22;40915;50.826;4.356;2022-12-18T16:12:18;1.30;99.90
25628;DHT22;40915;50.826;4.356;2022-12-18T16:14:44;1.30;99.90
25628;DHT22;40915;50.826;4.356;2022-12-18T16:17:11;1.30;99.90
25628;DHT22;40915;50.826;4.356;2022-12-18T16:19:38;1.30;99.90
25628;DHT22;40915;50.826;4.356;2022-12-18T16:22:04;1.30;99.90
25628;DHT22;40915;50.826;4.356;2022-12-18T16:24:32;1.30;99.90
25628;DHT22;40915;50.826;4.356;2022-12-18T16:26:59;1.30;99.90
25628;DHT22;40915;50.826;4.356;2022-12-18T16:29:26;1.30;99.90
25628;DHT22;40915;50.826;4.356;2022-12-18T16:32:01;1.30;99.90
25628;DHT22;40915;50.826;4.356;2022-12-18T16:34:29;1.30;99.90
25628;DHT22;40915;50.826;4.356;2022-12-18T16:37:00;1.40;99.90
25628;DHT22;40915;50.826;4.356;2022-12-18T16:39:26;1.40;99.90
25628;DHT22;40915;50.826;4.356;2022-12-18T16:41:52;1.30;99.90
25628;DHT22;40915;50.826;4.356;2022-12-18T16:44:18;1.40;99.90
25628;DHT22;40915;50.826;4.356;2022-12-18T16:46:44;1.40;99.90
25628;DHT22;40915;50.826;4.356;2022-12-18T16:49:14;1.40;99.90
25628;DHT22;40915;50.826;4.356;2022-12-18T16:51:40;1.40;99.90
25628;DHT22;40915;50.826;4.356;2022-12-18T16:54:06;1.40;99.90
25628;DHT22;40915;50.826;4.356;2022-12-18T16:56:32;1.50;99.90
25628;DHT22;40915;50.826;4.356;2022-12-18T16:58:59;1.50;99.90
25628;DHT22;40915;50.826;4.356;2022-12-18T17:01:26;1.50;99.90
25628;DHT22;40915;50.826;4.356;2022-12-18T17:03:56;1.50;99.90
25628;DHT22;40915;50.826;4.356;2022-12-18T17:06:24;1.50;99.90
25628;DHT22;40915;50.826;4.356;2022-12-18T17:09:01;1.60;99.90
25628;DHT22;40915;50.826;4.356;2022-12-18T17:11:29;1.60;99.90
25628;DHT22;40915;50.826;4.356;2022-12-18T17:13:55;1.70;99.90
25628;DHT22;40915;50.826;4.356;2022-12-18T17:16:20;1.70;99.90
25628;DHT22;40915;50.826;4.356;2022-12-18T17:18:46;1.60;99.90
25628;DHT22;40915;50.826;4.356;2022-12-18T17:21:13;1.60;99.90
25628;DHT22;40915;50.826;4.356;2022-12-18T17:23:40;1.60;99.90
25628;DHT22;40915;50.826;4.356;2022-12-18T17:26:06;1.60;99.90
25628;DHT22;40915;50.826;4.356;2022-12-18T17:28:33;1.70;99.90
25628;DHT22;40915;50.826;4.356;2022-12-18T17:31:00;1.60;99.90
25628;DHT22;40915;50.826;4.356;2022-12-18T17:33:27;1.70;99.90
25628;DHT22;40915;50.826;4.356;2022-12-18T17:35:53;1.70;99.90
25628;DHT22;40915;50.826;4.356;2022-12-18T17:38:18;1.60;99.90
25628;DHT22;40915;50.826;4.356;2022-12-18T17:40:47;1.60;99.90
25628;DHT22;40915;50.826;4.356;2022-12-18T17:43:12;1.50;99.90
25628;DHT22;40915;50.826;4.356;2022-12-18T17:45:39;1.50;99.90
25628;DHT22;40915;50.826;4.356;2022-12-18T17:48:06;1.50;99.90
25628;DHT22;40915;50.826;4.356;2022-12-18T17:50:32;1.50;99.90
25628;DHT22;40915;50.826;4.356;2022-12-18T17:53:00;1.50;99.90
25628;DHT22;40915;50.826;4.356;2022-12-18T17:55:26;1.40;99.90
25628;DHT22;40915;50.826;4.356;2022-12-18T17:57:52;1.40;99.90
25628;DHT22;40915;50.826;4.356;2022-12-18T18:00:18;1.40;99.90
25628;DHT22;40915;50.826;4.356;2022-12-18T18:02:44;1.50;99.90